الصفحة الرئيسية
METAR-TAF:

METAR-TAF

مطار :

كيش, إيران

دائرة عرض: 26-31-36N, خط طول: 053-58-54E, ارتفاع: 30 متر

مراقبة الطقس الحالي

تاريخ ووقت الإصدار 1ساعة و 3 دقيقة قبل الساعة 09:00UTC
ريح 8 عقدة من الجنوب الغربي
درجة الحرارة 38°درجة مئوية
الرطوبة 48%
ضغط 998 hPa
الرؤية: 8000 متر

METAR: OIBK 140900Z 22008KT 8000 NSC 38/25 Q0998

زمن: 14:33 (10:03 UTC)

توقعات

تاريخ ووقت الإصدار 4ساعات و 39 دقيقة قبل الساعة 05:24UTC
التوقعات صالحة من14 الساعة 06 UTC إلى 15 الساعة 12 UTC
ريح 7 عقدة من الغرب/الشمال الغربي
الرؤية: 7000 متر
مؤقت
من 14 الساعة 09 UTC إلى 14 الساعة 16 UTC
ريح 17 عقدة من الشمال الغربي
مؤقت
من 15 الساعة 00 UTC إلى 15 الساعة 05 UTC
الرؤية: 4000 متر
العجاج,

TAF: OIBK 140524Z 1406/1512 30007KT 7000 NSC TEMPO 1409/1416 32017KT TEMPO 1500/1505 4000 HZ

أرصاد الطقس والتوقعات من أكثر من 4000 مطار (تقارير الطقس للمطار METAR والتنبؤ بالطقس بالمطارTAF).

المحطات المتاحة هي النقط الصفراء والحمراء على الخريطة.

حرك المؤشر فوق النقطة لمعرفة اسم المحطة.

ثم انقر لمعرفة أرصاد وتوقعات الطقس.

لتغيير الخارطة: اضغط على الأزرار الخضراء مع رمز الصليب الأسود للتكبير. على الزر الأخضر مع شرطة للتصغير، أو على الأسهم الخضراء للخرائط المجاورة.


METAR-TAF: